עמוד ראשי
METAR-TAF:

METAR-TAF

שדות תעופה :

נמל התעופה הבינלאומי המלך חוסיין

עקבה, ירדן

קו רוחב: 29-38N, קו אורך: 035-01E, גובה: 53מטר

תצפית מזג אוויר נוכחית

הדו"ח נערך לפני 46דקות, בשעה 09:00 UTC
רוח 10קשר מכיוון דרום/דרום-מזרח
טמפרטורת 38 צלסיוס
לחות 11%
לחץ 1009 hPa
ראות: 6000מטר

METAR: OJAQ 270900Z 16010KT 6000 NSC 38/03 Q1009 NOSIG

זמן: 12:46 (09:46 UTC)

תחזית

הדו"ח נערך לפני 4 שעות ו 46דקות, בשעה 05:00 UTC
תחזית בתוקף מ 27 ב 06 UTC עד 28 ב 12 UTC
רוח 12קשר מכיוון צפון
ראות: 7000מטר
זמנית מ -
27 ב 06 UTC עד 27 ב 18 UTC
רוח 10קשר מכיוון דרום
ראות: 4000מטר
אבק נרחבת
הסתברות 40% :
זמנית מ -
27 ב 09 UTC עד 27 ב 16 UTC
רוח 16קשר מכיוון דרום
ראות: 3000מטר
אבק נושב
הסתברות 40% :
זמנית מ -
28 ב 07 UTC עד 28 ב 12 UTC
רוח 18קשר מכיוון צפון
ראות: 4000מטר
אבק נושב,

TAF: OJAQ 270500Z 2706/2812 36012KT 7000 NSC TEMPO 2706/2718 18010KT 4000 DU PROB40 TEMPO 2709/2716 18016KT 3000 BLDU PROB40 TEMPO 2807/2812 36018KT 4000 BLDU

תצפיות ותחזיות מזג אוויר לגבי יותר מ- 4,000 שדות תעופה ברחבי העולם. דוחות METAR ו- TAF.

התחנות הזמינות מסומנות בנקודות צהובות ואדומות על גבי המפה.

העבר את העכבר לנקודה הצבעונית על מנת לראות את שם התחנה.

לאחר מכן, לחץ כדי לראות את תוכן ואת תחזיות מזג האוויר.

כדי לשנות את המפה: לחץ על הכפתורים הירוקים עם הפלוס השחור כדי להתקרב; על הכפתור הירוק עם המקף כדי להתרחק; או בחיצים הירוקים למפות סמוכות.


METAR-TAF: